sensor_id;sensor_type;location;lat;lon;timestamp;P1;durP1;ratioP1;P2;durP2;ratioP2
13477;SDS011;12598;62.382;17.344;2022-09-09T00:00:34;1.75;;;0.40;;
13477;SDS011;12598;62.382;17.344;2022-09-09T00:01:54;0.52;;;0.40;;
13477;SDS011;12598;62.382;17.344;2022-09-09T00:03:12;0.45;;;0.40;;
13477;SDS011;12598;62.382;17.344;2022-09-09T00:04:22;0.63;;;0.28;;
13477;SDS011;12598;62.382;17.344;2022-09-09T00:05:37;0.82;;;0.60;;
13477;SDS011;12598;62.382;17.344;2022-09-09T00:06:45;1.00;;;0.50;;
13477;SDS011;12598;62.382;17.344;2022-09-09T00:07:49;0.60;;;0.50;;
13477;SDS011;12598;62.382;17.344;2022-09-09T00:08:59;0.55;;;0.30;;
13477;SDS011;12598;62.382;17.344;2022-09-09T00:11:10;0.52;;;0.30;;
13477;SDS011;12598;62.382;17.344;2022-09-09T00:12:37;0.32;;;0.30;;
13477;SDS011;12598;62.382;17.344;2022-09-09T00:13:52;0.77;;;0.50;;
13477;SDS011;12598;62.382;17.344;2022-09-09T00:14:57;1.70;;;0.40;;
13477;SDS011;12598;62.382;17.344;2022-09-09T00:16:05;0.57;;;0.47;;
13477;SDS011;12598;62.382;17.344;2022-09-09T00:17:21;2.10;;;0.47;;
13477;SDS011;12598;62.382;17.344;2022-09-09T00:19:48;0.40;;;0.40;;
13477;SDS011;12598;62.382;17.344;2022-09-09T00:24:49;0.93;;;0.40;;
13477;SDS011;12598;62.382;17.344;2022-09-09T00:26:07;0.55;;;0.20;;
13477;SDS011;12598;62.382;17.344;2022-09-09T00:27:29;0.90;;;0.50;;
13477;SDS011;12598;62.382;17.344;2022-09-09T00:28:41;0.40;;;0.40;;
13477;SDS011;12598;62.382;17.344;2022-09-09T00:29:56;1.05;;;0.50;;
13477;SDS011;12598;62.382;17.344;2022-09-09T00:31:04;0.95;;;0.57;;
13477;SDS011;12598;62.382;17.344;2022-09-09T00:32:17;1.45;;;0.47;;
13477;SDS011;12598;62.382;17.344;2022-09-09T00:33:20;0.65;;;0.55;;
13477;SDS011;12598;62.382;17.344;2022-09-09T00:34:24;1.75;;;0.75;;
13477;SDS011;12598;62.382;17.344;2022-09-09T00:35:36;2.70;;;0.70;;
13477;SDS011;12598;62.382;17.344;2022-09-09T00:36:41;1.27;;;0.80;;
13477;SDS011;12598;62.382;17.344;2022-09-09T00:37:46;0.93;;;0.40;;
13477;SDS011;12598;62.382;17.344;2022-09-09T00:38:55;0.95;;;0.55;;
13477;SDS011;12598;62.382;17.344;2022-09-09T00:39:59;1.45;;;0.68;;
13477;SDS011;12598;62.382;17.344;2022-09-09T00:42:23;0.73;;;0.50;;
13477;SDS011;12598;62.382;17.344;2022-09-09T00:43:28;1.70;;;0.47;;
13477;SDS011;12598;62.382;17.344;2022-09-09T00:44:35;1.65;;;0.65;;
13477;SDS011;12598;62.382;17.344;2022-09-09T00:48:25;0.43;;;0.35;;
13477;SDS011;12598;62.382;17.344;2022-09-09T00:49:50;1.13;;;0.70;;
13477;SDS011;12598;62.382;17.344;2022-09-09T00:52:01;0.63;;;0.60;;
13477;SDS011;12598;62.382;17.344;2022-09-09T00:54:13;0.85;;;0.52;;
13477;SDS011;12598;62.382;17.344;2022-09-09T00:56:37;0.95;;;0.57;;
13477;SDS011;12598;62.382;17.344;2022-09-09T00:57:49;0.55;;;0.40;;
13477;SDS011;12598;62.382;17.344;2022-09-09T00:59:00;0.65;;;0.40;;
13477;SDS011;12598;62.382;17.344;2022-09-09T01:00:27;0.80;;;0.50;;
13477;SDS011;12598;62.382;17.344;2022-09-09T01:01:29;0.50;;;0.40;;
13477;SDS011;12598;62.382;17.344;2022-09-09T01:03:55;1.30;;;0.65;;
13477;SDS011;12598;62.382;17.344;2022-09-09T01:05:03;0.68;;;0.50;;
13477;SDS011;12598;62.382;17.344;2022-09-09T01:06:13;0.55;;;0.50;;
13477;SDS011;12598;62.382;17.344;2022-09-09T01:07:17;3.53;;;0.73;;
13477;SDS011;12598;62.382;17.344;2022-09-09T01:09:56;0.70;;;0.40;;
13477;SDS011;12598;62.382;17.344;2022-09-09T01:11:00;0.52;;;0.43;;
13477;SDS011;12598;62.382;17.344;2022-09-09T01:12:12;1.50;;;0.50;;
13477;SDS011;12598;62.382;17.344;2022-09-09T01:13:26;0.73;;;0.45;;
13477;SDS011;12598;62.382;17.344;2022-09-09T01:14:43;0.60;;;0.45;;
13477;SDS011;12598;62.382;17.344;2022-09-09T01:15:51;0.90;;;0.45;;
13477;SDS011;12598;62.382;17.344;2022-09-09T01:18:26;1.25;;;0.35;;
13477;SDS011;12598;62.382;17.344;2022-09-09T01:21:14;0.70;;;0.38;;
13477;SDS011;12598;62.382;17.344;2022-09-09T01:22:40;0.60;;;0.30;;
13477;SDS011;12598;62.382;17.344;2022-09-09T01:26:04;0.85;;;0.40;;
13477;SDS011;12598;62.382;17.344;2022-09-09T01:27:09;0.88;;;0.50;;
13477;SDS011;12598;62.382;17.344;2022-09-09T01:28:19;0.55;;;0.50;;
13477;SDS011;12598;62.382;17.344;2022-09-09T01:29:26;0.82;;;0.50;;
13477;SDS011;12598;62.382;17.344;2022-09-09T01:30:28;0.90;;;0.50;;
13477;SDS011;12598;62.382;17.344;2022-09-09T01:31:32;0.70;;;0.52;;
13477;SDS011;12598;62.382;17.344;2022-09-09T01:33:42;1.05;;;0.65;;
13477;SDS011;12598;62.382;17.344;2022-09-09T01:34:44;0.80;;;0.60;;
13477;SDS011;12598;62.382;17.344;2022-09-09T01:35:52;1.63;;;0.40;;
13477;SDS011;12598;62.382;17.344;2022-09-09T01:38:08;0.90;;;0.50;;
13477;SDS011;12598;62.382;17.344;2022-09-09T01:39:10;0.70;;;0.45;;
13477;SDS011;12598;62.382;17.344;2022-09-09T01:40:14;0.60;;;0.50;;
13477;SDS011;12598;62.382;17.344;2022-09-09T01:41:16;1.58;;;0.50;;
13477;SDS011;12598;62.382;17.344;2022-09-09T01:42:33;0.73;;;0.47;;
13477;SDS011;12598;62.382;17.344;2022-09-09T01:43:36;0.82;;;0.43;;
13477;SDS011;12598;62.382;17.344;2022-09-09T01:44:38;1.00;;;0.45;;
13477;SDS011;12598;62.382;17.344;2022-09-09T01:45:40;0.82;;;0.47;;
13477;SDS011;12598;62.382;17.344;2022-09-09T01:46:44;0.82;;;0.43;;
13477;SDS011;12598;62.382;17.344;2022-09-09T01:47:51;1.63;;;0.68;;
13477;SDS011;12598;62.382;17.344;2022-09-09T01:49:03;0.70;;;0.50;;
13477;SDS011;12598;62.382;17.344;2022-09-09T01:50:08;1.23;;;0.50;;
13477;SDS011;12598;62.382;17.344;2022-09-09T01:51:14;2.72;;;0.77;;
13477;SDS011;12598;62.382;17.344;2022-09-09T01:52:16;1.00;;;0.60;;
13477;SDS011;12598;62.382;17.344;2022-09-09T01:53:18;2.25;;;0.88;;
13477;SDS011;12598;62.382;17.344;2022-09-09T01:54:23;1.33;;;0.57;;
13477;SDS011;12598;62.382;17.344;2022-09-09T01:55:29;0.90;;;0.47;;
13477;SDS011;12598;62.382;17.344;2022-09-09T01:56:54;0.93;;;0.57;;
13477;SDS011;12598;62.382;17.344;2022-09-09T01:59:27;2.45;;;0.65;;
13477;SDS011;12598;62.382;17.344;2022-09-09T02:01:08;1.35;;;0.50;;
13477;SDS011;12598;62.382;17.344;2022-09-09T02:02:27;1.13;;;0.50;;
13477;SDS011;12598;62.382;17.344;2022-09-09T02:03:41;2.15;;;0.60;;
13477;SDS011;12598;62.382;17.344;2022-09-09T02:05:14;2.30;;;0.63;;
13477;SDS011;12598;62.382;17.344;2022-09-09T02:06:28;0.77;;;0.40;;
13477;SDS011;12598;62.382;17.344;2022-09-09T02:07:49;0.50;;;0.50;;
13477;SDS011;12598;62.382;17.344;2022-09-09T02:09:02;1.70;;;0.52;;
13477;SDS011;12598;62.382;17.344;2022-09-09T02:10:12;1.45;;;0.40;;
13477;SDS011;12598;62.382;17.344;2022-09-09T02:11:28;1.15;;;0.40;;
13477;SDS011;12598;62.382;17.344;2022-09-09T02:12:44;0.70;;;0.40;;
13477;SDS011;12598;62.382;17.344;2022-09-09T02:13:49;1.10;;;0.50;;
13477;SDS011;12598;62.382;17.344;2022-09-09T02:15:00;1.33;;;0.47;;
13477;SDS011;12598;62.382;17.344;2022-09-09T02:16:18;0.80;;;0.30;;
13477;SDS011;12598;62.382;17.344;2022-09-09T02:17:33;2.20;;;0.57;;
13477;SDS011;12598;62.382;17.344;2022-09-09T02:18:50;0.80;;;0.40;;
13477;SDS011;12598;62.382;17.344;2022-09-09T02:20:12;1.85;;;0.52;;
13477;SDS011;12598;62.382;17.344;2022-09-09T02:21:44;1.85;;;0.50;;
13477;SDS011;12598;62.382;17.344;2022-09-09T02:22:49;1.77;;;0.30;;
13477;SDS011;12598;62.382;17.344;2022-09-09T02:23:53;1.05;;;0.50;;
13477;SDS011;12598;62.382;17.344;2022-09-09T02:24:58;1.55;;;0.50;;
13477;SDS011;12598;62.382;17.344;2022-09-09T02:26:03;1.38;;;0.40;;
13477;SDS011;12598;62.382;17.344;2022-09-09T02:27:06;0.88;;;0.45;;
13477;SDS011;12598;62.382;17.344;2022-09-09T02:28:10;0.47;;;0.40;;
13477;SDS011;12598;62.382;17.344;2022-09-09T02:29:16;1.10;;;0.70;;
13477;SDS011;12598;62.382;17.344;2022-09-09T02:30:24;0.73;;;0.50;;
13477;SDS011;12598;62.382;17.344;2022-09-09T02:31:30;0.90;;;0.40;;
13477;SDS011;12598;62.382;17.344;2022-09-09T02:32:40;0.57;;;0.40;;
13477;SDS011;12598;62.382;17.344;2022-09-09T02:33:48;1.83;;;0.60;;
13477;SDS011;12598;62.382;17.344;2022-09-09T02:35:17;0.50;;;0.20;;
13477;SDS011;12598;62.382;17.344;2022-09-09T02:36:22;2.28;;;0.60;;
13477;SDS011;12598;62.382;17.344;2022-09-09T02:37:31;1.17;;;0.25;;
13477;SDS011;12598;62.382;17.344;2022-09-09T02:38:38;0.50;;;0.30;;
13477;SDS011;12598;62.382;17.344;2022-09-09T02:39:47;1.67;;;0.40;;
13477;SDS011;12598;62.382;17.344;2022-09-09T02:40:53;0.40;;;0.30;;
13477;SDS011;12598;62.382;17.344;2022-09-09T02:41:55;1.75;;;0.30;;
13477;SDS011;12598;62.382;17.344;2022-09-09T02:43:04;0.95;;;0.47;;
13477;SDS011;12598;62.382;17.344;2022-09-09T02:44:09;1.05;;;0.32;;
13477;SDS011;12598;62.382;17.344;2022-09-09T02:45:25;0.38;;;0.28;;
13477;SDS011;12598;62.382;17.344;2022-09-09T02:49:28;0.77;;;0.35;;
13477;SDS011;12598;62.382;17.344;2022-09-09T02:51:03;0.85;;;0.40;;
13477;SDS011;12598;62.382;17.344;2022-09-09T02:52:15;0.50;;;0.22;;
13477;SDS011;12598;62.382;17.344;2022-09-09T02:53:22;0.50;;;0.30;;
13477;SDS011;12598;62.382;17.344;2022-09-09T02:54:34;1.38;;;0.47;;
13477;SDS011;12598;62.382;17.344;2022-09-09T02:55:55;0.55;;;0.50;;
13477;SDS011;12598;62.382;17.344;2022-09-09T02:57:11;0.93;;;0.47;;
13477;SDS011;12598;62.382;17.344;2022-09-09T02:58:20;0.60;;;0.40;;
13477;SDS011;12598;62.382;17.344;2022-09-09T02:59:41;1.65;;;0.30;;
13477;SDS011;12598;62.382;17.344;2022-09-09T03:00:46;0.60;;;0.40;;
13477;SDS011;12598;62.382;17.344;2022-09-09T03:01:49;1.20;;;0.40;;
13477;SDS011;12598;62.382;17.344;2022-09-09T03:02:51;0.70;;;0.30;;
13477;SDS011;12598;62.382;17.344;2022-09-09T03:03:53;1.23;;;0.28;;
13477;SDS011;12598;62.382;17.344;2022-09-09T03:04:57;0.22;;;0.22;;
13477;SDS011;12598;62.382;17.344;2022-09-09T03:05:59;1.52;;;0.40;;
13477;SDS011;12598;62.382;17.344;2022-09-09T03:07:02;0.57;;;0.30;;
13477;SDS011;12598;62.382;17.344;2022-09-09T03:08:05;1.05;;;0.60;;
13477;SDS011;12598;62.382;17.344;2022-09-09T03:09:07;0.70;;;0.35;;
13477;SDS011;12598;62.382;17.344;2022-09-09T03:10:12;0.95;;;0.40;;
13477;SDS011;12598;62.382;17.344;2022-09-09T03:11:16;0.50;;;0.38;;
13477;SDS011;12598;62.382;17.344;2022-09-09T03:12:18;0.40;;;0.32;;
13477;SDS011;12598;62.382;17.344;2022-09-09T03:13:20;0.60;;;0.47;;
13477;SDS011;12598;62.382;17.344;2022-09-09T03:14:23;2.40;;;0.38;;
13477;SDS011;12598;62.382;17.344;2022-09-09T03:15:29;0.60;;;0.40;;
13477;SDS011;12598;62.382;17.344;2022-09-09T03:16:32;0.70;;;0.32;;
13477;SDS011;12598;62.382;17.344;2022-09-09T03:17:35;0.60;;;0.32;;
13477;SDS011;12598;62.382;17.344;2022-09-09T03:18:38;1.25;;;0.65;;
13477;SDS011;12598;62.382;17.344;2022-09-09T03:19:39;0.45;;;0.35;;
13477;SDS011;12598;62.382;17.344;2022-09-09T03:20:43;0.82;;;0.35;;
13477;SDS011;12598;62.382;17.344;2022-09-09T03:21:45;0.40;;;0.25;;
13477;SDS011;12598;62.382;17.344;2022-09-09T03:22:48;0.82;;;0.30;;
13477;SDS011;12598;62.382;17.344;2022-09-09T03:23:50;0.50;;;0.40;;
13477;SDS011;12598;62.382;17.344;2022-09-09T03:24:52;0.30;;;0.30;;
13477;SDS011;12598;62.382;17.344;2022-09-09T03:25:54;0.95;;;0.20;;
13477;SDS011;12598;62.382;17.344;2022-09-09T03:27:05;0.82;;;0.30;;
13477;SDS011;12598;62.382;17.344;2022-09-09T03:28:10;0.85;;;0.30;;
13477;SDS011;12598;62.382;17.344;2022-09-09T03:29:12;0.68;;;0.52;;
13477;SDS011;12598;62.382;17.344;2022-09-09T03:30:15;4.53;;;0.57;;
13477;SDS011;12598;62.382;17.344;2022-09-09T03:31:18;1.88;;;0.52;;
13477;SDS011;12598;62.382;17.344;2022-09-09T03:32:21;4.78;;;0.70;;
13477;SDS011;12598;62.382;17.344;2022-09-09T03:33:24;2.35;;;0.90;;
13477;SDS011;12598;62.382;17.344;2022-09-09T03:34:26;2.03;;;0.75;;
13477;SDS011;12598;62.382;17.344;2022-09-09T03:35:30;1.83;;;1.13;;
13477;SDS011;12598;62.382;17.344;2022-09-09T03:36:32;2.20;;;0.80;;
13477;SDS011;12598;62.382;17.344;2022-09-09T03:37:34;1.67;;;1.00;;
13477;SDS011;12598;62.382;17.344;2022-09-09T03:38:37;1.35;;;0.90;;
13477;SDS011;12598;62.382;17.344;2022-09-09T03:39:39;2.55;;;1.00;;
13477;SDS011;12598;62.382;17.344;2022-09-09T03:40:49;1.30;;;1.00;;
13477;SDS011;12598;62.382;17.344;2022-09-09T03:41:52;2.65;;;0.98;;
13477;SDS011;12598;62.382;17.344;2022-09-09T03:42:56;2.33;;;1.20;;
13477;SDS011;12598;62.382;17.344;2022-09-09T03:43:59;4.22;;;1.50;;
13477;SDS011;12598;62.382;17.344;2022-09-09T03:45:08;2.25;;;1.60;;
13477;SDS011;12598;62.382;17.344;2022-09-09T03:46:14;2.40;;;1.90;;
13477;SDS011;12598;62.382;17.344;2022-09-09T03:47:16;3.60;;;1.80;;
13477;SDS011;12598;62.382;17.344;2022-09-09T03:48:19;3.03;;;1.67;;
13477;SDS011;12598;62.382;17.344;2022-09-09T03:49:21;2.47;;;1.60;;
13477;SDS011;12598;62.382;17.344;2022-09-09T03:50:24;1.70;;;1.55;;
13477;SDS011;12598;62.382;17.344;2022-09-09T03:51:26;2.80;;;1.67;;
13477;SDS011;12598;62.382;17.344;2022-09-09T03:52:28;2.05;;;1.45;;
13477;SDS011;12598;62.382;17.344;2022-09-09T03:53:31;1.77;;;1.48;;
13477;SDS011;12598;62.382;17.344;2022-09-09T03:54:33;2.40;;;1.65;;
13477;SDS011;12598;62.382;17.344;2022-09-09T03:55:35;1.73;;;1.33;;
13477;SDS011;12598;62.382;17.344;2022-09-09T03:56:37;2.50;;;1.67;;
13477;SDS011;12598;62.382;17.344;2022-09-09T03:57:39;2.88;;;1.40;;
13477;SDS011;12598;62.382;17.344;2022-09-09T03:58:42;1.60;;;1.15;;
13477;SDS011;12598;62.382;17.344;2022-09-09T03:59:46;1.95;;;1.60;;
13477;SDS011;12598;62.382;17.344;2022-09-09T04:02:05;1.63;;;1.30;;
13477;SDS011;12598;62.382;17.344;2022-09-09T04:03:11;1.80;;;1.20;;
13477;SDS011;12598;62.382;17.344;2022-09-09T04:04:13;1.85;;;1.05;;
13477;SDS011;12598;62.382;17.344;2022-09-09T04:05:15;1.75;;;1.20;;
13477;SDS011;12598;62.382;17.344;2022-09-09T04:06:18;2.20;;;1.20;;
13477;SDS011;12598;62.382;17.344;2022-09-09T04:07:22;1.80;;;1.40;;
13477;SDS011;12598;62.382;17.344;2022-09-09T04:08:24;1.42;;;1.00;;
13477;SDS011;12598;62.382;17.344;2022-09-09T04:09:27;3.20;;;0.98;;
13477;SDS011;12598;62.382;17.344;2022-09-09T04:10:30;1.50;;;1.08;;
13477;SDS011;12598;62.382;17.344;2022-09-09T04:11:33;1.60;;;0.93;;
13477;SDS011;12598;62.382;17.344;2022-09-09T04:12:35;1.17;;;0.70;;
13477;SDS011;12598;62.382;17.344;2022-09-09T04:13:37;2.40;;;1.00;;
13477;SDS011;12598;62.382;17.344;2022-09-09T04:14:43;1.00;;;0.80;;
13477;SDS011;12598;62.382;17.344;2022-09-09T04:15:54;2.13;;;1.08;;
13477;SDS011;12598;62.382;17.344;2022-09-09T04:16:57;2.08;;;0.85;;
13477;SDS011;12598;62.382;17.344;2022-09-09T04:18:00;1.30;;;0.70;;
13477;SDS011;12598;62.382;17.344;2022-09-09T04:19:03;1.77;;;0.77;;
13477;SDS011;12598;62.382;17.344;2022-09-09T04:20:05;2.30;;;0.80;;
13477;SDS011;12598;62.382;17.344;2022-09-09T04:21:12;1.02;;;0.80;;
13477;SDS011;12598;62.382;17.344;2022-09-09T04:22:14;2.05;;;0.77;;
13477;SDS011;12598;62.382;17.344;2022-09-09T04:23:17;1.83;;;1.05;;
13477;SDS011;12598;62.382;17.344;2022-09-09T04:24:23;1.67;;;0.70;;
13477;SDS011;12598;62.382;17.344;2022-09-09T04:25:26;1.77;;;0.70;;
13477;SDS011;12598;62.382;17.344;2022-09-09T04:26:27;0.60;;;0.60;;
13477;SDS011;12598;62.382;17.344;2022-09-09T04:27:29;1.75;;;0.88;;
13477;SDS011;12598;62.382;17.344;2022-09-09T04:28:32;0.98;;;0.70;;
13477;SDS011;12598;62.382;17.344;2022-09-09T04:29:36;0.98;;;0.77;;
13477;SDS011;12598;62.382;17.344;2022-09-09T04:30:38;1.25;;;0.60;;
13477;SDS011;12598;62.382;17.344;2022-09-09T04:31:41;2.85;;;0.70;;
13477;SDS011;12598;62.382;17.344;2022-09-09T04:32:43;1.40;;;0.50;;
13477;SDS011;12598;62.382;17.344;2022-09-09T04:33:45;3.00;;;0.60;;
13477;SDS011;12598;62.382;17.344;2022-09-09T04:34:47;0.57;;;0.57;;
13477;SDS011;12598;62.382;17.344;2022-09-09T04:35:50;0.90;;;0.40;;
13477;SDS011;12598;62.382;17.344;2022-09-09T04:36:52;1.27;;;0.70;;
13477;SDS011;12598;62.382;17.344;2022-09-09T04:37:54;1.33;;;0.70;;
13477;SDS011;12598;62.382;17.344;2022-09-09T04:38:56;0.40;;;0.40;;
13477;SDS011;12598;62.382;17.344;2022-09-09T04:39:59;0.85;;;0.45;;
13477;SDS011;12598;62.382;17.344;2022-09-09T04:41:06;0.93;;;0.68;;
13477;SDS011;12598;62.382;17.344;2022-09-09T04:42:11;1.25;;;0.77;;
13477;SDS011;12598;62.382;17.344;2022-09-09T04:43:13;0.70;;;0.70;;
13477;SDS011;12598;62.382;17.344;2022-09-09T04:44:18;0.93;;;0.63;;
13477;SDS011;12598;62.382;17.344;2022-09-09T04:45:21;1.13;;;0.57;;
13477;SDS011;12598;62.382;17.344;2022-09-09T04:46:23;0.60;;;0.50;;
13477;SDS011;12598;62.382;17.344;2022-09-09T04:47:25;1.52;;;0.47;;
13477;SDS011;12598;62.382;17.344;2022-09-09T04:48:27;1.90;;;0.60;;
13477;SDS011;12598;62.382;17.344;2022-09-09T04:49:29;1.42;;;0.70;;
13477;SDS011;12598;62.382;17.344;2022-09-09T04:50:33;1.05;;;0.70;;
13477;SDS011;12598;62.382;17.344;2022-09-09T04:51:35;0.88;;;0.50;;
13477;SDS011;12598;62.382;17.344;2022-09-09T04:52:37;1.10;;;0.60;;
13477;SDS011;12598;62.382;17.344;2022-09-09T04:53:40;0.45;;;0.45;;
13477;SDS011;12598;62.382;17.344;2022-09-09T04:54:42;1.42;;;0.45;;
13477;SDS011;12598;62.382;17.344;2022-09-09T04:55:44;3.20;;;0.63;;
13477;SDS011;12598;62.382;17.344;2022-09-09T04:56:46;0.85;;;0.47;;
13477;SDS011;12598;62.382;17.344;2022-09-09T04:57:48;1.88;;;0.47;;
13477;SDS011;12598;62.382;17.344;2022-09-09T04:58:50;0.60;;;0.40;;
13477;SDS011;12598;62.382;17.344;2022-09-09T04:59:55;0.47;;;0.40;;
13477;SDS011;12598;62.382;17.344;2022-09-09T05:01:06;0.93;;;0.60;;
13477;SDS011;12598;62.382;17.344;2022-09-09T05:02:11;2.13;;;0.60;;
13477;SDS011;12598;62.382;17.344;2022-09-09T05:03:13;0.52;;;0.40;;
13477;SDS011;12598;62.382;17.344;2022-09-09T05:04:16;1.05;;;0.60;;
13477;SDS011;12598;62.382;17.344;2022-09-09T05:05:18;0.60;;;0.60;;
13477;SDS011;12598;62.382;17.344;2022-09-09T05:06:21;0.40;;;0.35;;
13477;SDS011;12598;62.382;17.344;2022-09-09T05:07:28;0.60;;;0.57;;
13477;SDS011;12598;62.382;17.344;2022-09-09T05:08:30;1.77;;;0.80;;
13477;SDS011;12598;62.382;17.344;2022-09-09T05:09:32;1.35;;;0.45;;
13477;SDS011;12598;62.382;17.344;2022-09-09T05:10:36;0.50;;;0.45;;
13477;SDS011;12598;62.382;17.344;2022-09-09T05:11:39;0.50;;;0.50;;
13477;SDS011;12598;62.382;17.344;2022-09-09T05:12:59;0.90;;;0.40;;
13477;SDS011;12598;62.382;17.344;2022-09-09T05:14:04;1.38;;;0.40;;
13477;SDS011;12598;62.382;17.344;2022-09-09T05:15:06;2.65;;;0.70;;
13477;SDS011;12598;62.382;17.344;2022-09-09T05:16:09;0.90;;;0.47;;
13477;SDS011;12598;62.382;17.344;2022-09-09T05:17:12;1.27;;;0.60;;
13477;SDS011;12598;62.382;17.344;2022-09-09T05:18:14;1.90;;;0.50;;
13477;SDS011;12598;62.382;17.344;2022-09-09T05:19:16;2.13;;;0.50;;
13477;SDS011;12598;62.382;17.344;2022-09-09T05:20:22;2.08;;;0.75;;
13477;SDS011;12598;62.382;17.344;2022-09-09T05:21:24;1.67;;;0.60;;
13477;SDS011;12598;62.382;17.344;2022-09-09T05:22:28;1.10;;;0.50;;
13477;SDS011;12598;62.382;17.344;2022-09-09T05:23:31;1.08;;;0.57;;
13477;SDS011;12598;62.382;17.344;2022-09-09T05:24:35;1.48;;;0.43;;
13477;SDS011;12598;62.382;17.344;2022-09-09T05:25:38;1.95;;;0.70;;
13477;SDS011;12598;62.382;17.344;2022-09-09T05:26:41;1.35;;;0.75;;
13477;SDS011;12598;62.382;17.344;2022-09-09T05:27:45;1.92;;;0.60;;
13477;SDS011;12598;62.382;17.344;2022-09-09T05:28:48;2.60;;;1.00;;
13477;SDS011;12598;62.382;17.344;2022-09-09T05:29:50;2.80;;;0.50;;
13477;SDS011;12598;62.382;17.344;2022-09-09T05:30:55;1.60;;;0.98;;
13477;SDS011;12598;62.382;17.344;2022-09-09T05:31:59;2.80;;;0.77;;
13477;SDS011;12598;62.382;17.344;2022-09-09T05:33:01;2.78;;;0.82;;
13477;SDS011;12598;62.382;17.344;2022-09-09T05:34:03;4.03;;;0.80;;
13477;SDS011;12598;62.382;17.344;2022-09-09T05:35:05;1.58;;;0.80;;
13477;SDS011;12598;62.382;17.344;2022-09-09T05:36:08;1.42;;;0.68;;
13477;SDS011;12598;62.382;17.344;2022-09-09T05:37:12;3.88;;;0.88;;
13477;SDS011;12598;62.382;17.344;2022-09-09T05:38:14;6.70;;;0.68;;
13477;SDS011;12598;62.382;17.344;2022-09-09T05:39:16;2.83;;;0.80;;
13477;SDS011;12598;62.382;17.344;2022-09-09T05:40:18;2.33;;;0.75;;
13477;SDS011;12598;62.382;17.344;2022-09-09T05:41:20;2.67;;;0.60;;
13477;SDS011;12598;62.382;17.344;2022-09-09T05:42:30;2.83;;;0.52;;
13477;SDS011;12598;62.382;17.344;2022-09-09T05:43:34;2.08;;;0.70;;
13477;SDS011;12598;62.382;17.344;2022-09-09T05:44:37;1.70;;;0.60;;
13477;SDS011;12598;62.382;17.344;2022-09-09T05:45:39;1.08;;;0.70;;
13477;SDS011;12598;62.382;17.344;2022-09-09T05:46:40;4.47;;;0.80;;
13477;SDS011;12598;62.382;17.344;2022-09-09T05:47:42;3.28;;;0.80;;
13477;SDS011;12598;62.382;17.344;2022-09-09T05:48:47;3.33;;;1.13;;
13477;SDS011;12598;62.382;17.344;2022-09-09T05:49:54;6.68;;;1.58;;
13477;SDS011;12598;62.382;17.344;2022-09-09T05:50:57;4.15;;;1.23;;
13477;SDS011;12598;62.382;17.344;2022-09-09T05:52:00;3.88;;;1.00;;
13477;SDS011;12598;62.382;17.344;2022-09-09T05:53:02;5.63;;;1.77;;
13477;SDS011;12598;62.382;17.344;2022-09-09T05:54:05;5.05;;;1.50;;
13477;SDS011;12598;62.382;17.344;2022-09-09T05:55:11;4.38;;;1.27;;
13477;SDS011;12598;62.382;17.344;2022-09-09T05:56:14;3.47;;;1.50;;
13477;SDS011;12598;62.382;17.344;2022-09-09T05:57:19;3.90;;;1.90;;
13477;SDS011;12598;62.382;17.344;2022-09-09T05:58:21;5.20;;;1.25;;
13477;SDS011;12598;62.382;17.344;2022-09-09T05:59:24;2.92;;;1.42;;
13477;SDS011;12598;62.382;17.344;2022-09-09T06:00:28;2.30;;;1.00;;
13477;SDS011;12598;62.382;17.344;2022-09-09T06:01:34;5.57;;;1.40;;
13477;SDS011;12598;62.382;17.344;2022-09-09T06:02:37;7.85;;;1.05;;
13477;SDS011;12598;62.382;17.344;2022-09-09T06:03:41;4.70;;;1.35;;
13477;SDS011;12598;62.382;17.344;2022-09-09T06:04:44;5.10;;;1.20;;
13477;SDS011;12598;62.382;17.344;2022-09-09T06:05:46;5.85;;;1.50;;
13477;SDS011;12598;62.382;17.344;2022-09-09T06:06:48;5.88;;;1.27;;
13477;SDS011;12598;62.382;17.344;2022-09-09T06:07:52;1.35;;;0.80;;
13477;SDS011;12598;62.382;17.344;2022-09-09T06:08:56;2.78;;;1.05;;
13477;SDS011;12598;62.382;17.344;2022-09-09T06:10:04;4.88;;;0.90;;
13477;SDS011;12598;62.382;17.344;2022-09-09T06:11:08;2.03;;;0.95;;
13477;SDS011;12598;62.382;17.344;2022-09-09T06:12:12;2.08;;;0.95;;
13477;SDS011;12598;62.382;17.344;2022-09-09T06:13:13;2.78;;;1.08;;
13477;SDS011;12598;62.382;17.344;2022-09-09T06:14:15;1.60;;;0.63;;
13477;SDS011;12598;62.382;17.344;2022-09-09T06:15:21;2.60;;;0.90;;
13477;SDS011;12598;62.382;17.344;2022-09-09T06:16:24;3.95;;;0.80;;
13477;SDS011;12598;62.382;17.344;2022-09-09T06:17:28;3.13;;;0.90;;
13477;SDS011;12598;62.382;17.344;2022-09-09T06:18:30;2.78;;;0.75;;
13477;SDS011;12598;62.382;17.344;2022-09-09T06:19:32;3.28;;;1.08;;
13477;SDS011;12598;62.382;17.344;2022-09-09T06:20:35;4.03;;;0.80;;
13477;SDS011;12598;62.382;17.344;2022-09-09T06:21:37;2.95;;;0.93;;
13477;SDS011;12598;62.382;17.344;2022-09-09T06:22:41;1.80;;;0.95;;
13477;SDS011;12598;62.382;17.344;2022-09-09T06:23:43;2.35;;;0.88;;
13477;SDS011;12598;62.382;17.344;2022-09-09T06:24:46;1.70;;;0.82;;
13477;SDS011;12598;62.382;17.344;2022-09-09T06:25:47;1.90;;;0.70;;
13477;SDS011;12598;62.382;17.344;2022-09-09T06:26:50;1.55;;;0.70;;
13477;SDS011;12598;62.382;17.344;2022-09-09T06:27:56;1.35;;;0.70;;
13477;SDS011;12598;62.382;17.344;2022-09-09T06:28:58;3.00;;;0.70;;
13477;SDS011;12598;62.382;17.344;2022-09-09T06:30:01;1.20;;;0.52;;
13477;SDS011;12598;62.382;17.344;2022-09-09T06:31:05;1.20;;;0.60;;
13477;SDS011;12598;62.382;17.344;2022-09-09T06:32:08;1.63;;;0.60;;
13477;SDS011;12598;62.382;17.344;2022-09-09T06:33:10;1.42;;;0.80;;
13477;SDS011;12598;62.382;17.344;2022-09-09T06:34:12;2.13;;;0.60;;
13477;SDS011;12598;62.382;17.344;2022-09-09T06:35:18;3.58;;;0.80;;
13477;SDS011;12598;62.382;17.344;2022-09-09T06:36:20;1.17;;;0.60;;
13477;SDS011;12598;62.382;17.344;2022-09-09T06:37:24;1.08;;;0.60;;
13477;SDS011;12598;62.382;17.344;2022-09-09T06:38:28;1.58;;;0.60;;
13477;SDS011;12598;62.382;17.344;2022-09-09T06:39:30;1.15;;;0.55;;
13477;SDS011;12598;62.382;17.344;2022-09-09T06:40:32;3.50;;;0.65;;
13477;SDS011;12598;62.382;17.344;2022-09-09T06:41:34;1.27;;;0.70;;
13477;SDS011;12598;62.382;17.344;2022-09-09T06:42:37;2.25;;;0.50;;
13477;SDS011;12598;62.382;17.344;2022-09-09T06:43:57;2.30;;;0.85;;
13477;SDS011;12598;62.382;17.344;2022-09-09T06:45:07;0.93;;;0.50;;
13477;SDS011;12598;62.382;17.344;2022-09-09T06:46:18;1.48;;;0.65;;
13477;SDS011;12598;62.382;17.344;2022-09-09T06:47:24;1.35;;;0.60;;
13477;SDS011;12598;62.382;17.344;2022-09-09T06:48:27;1.83;;;0.50;;
13477;SDS011;12598;62.382;17.344;2022-09-09T06:49:29;0.82;;;0.50;;
13477;SDS011;12598;62.382;17.344;2022-09-09T06:50:31;1.73;;;0.50;;
13477;SDS011;12598;62.382;17.344;2022-09-09T06:51:34;1.60;;;0.52;;
13477;SDS011;12598;62.382;17.344;2022-09-09T06:52:39;0.85;;;0.40;;
13477;SDS011;12598;62.382;17.344;2022-09-09T06:53:43;0.52;;;0.30;;
13477;SDS011;12598;62.382;17.344;2022-09-09T06:54:47;1.00;;;0.55;;
13477;SDS011;12598;62.382;17.344;2022-09-09T06:55:50;0.55;;;0.20;;
13477;SDS011;12598;62.382;17.344;2022-09-09T06:56:52;1.60;;;0.40;;
13477;SDS011;12598;62.382;17.344;2022-09-09T06:57:57;1.17;;;0.32;;
13477;SDS011;12598;62.382;17.344;2022-09-09T06:59:01;0.70;;;0.40;;
13477;SDS011;12598;62.382;17.344;2022-09-09T07:00:07;1.83;;;0.60;;
13477;SDS011;12598;62.382;17.344;2022-09-09T07:01:10;1.08;;;0.65;;